createdAt,value
2023-01-24T00:01:05.746Z,2.17
2023-01-24T00:03:32.911Z,2.45
2023-01-24T00:06:00.185Z,2.42
2023-01-24T00:08:27.439Z,2.28
2023-01-24T00:11:07.148Z,2.30
2023-01-24T00:13:36.011Z,2.20
2023-01-24T00:16:08.505Z,2.42
2023-01-24T00:18:36.471Z,2.05
2023-01-24T00:21:06.719Z,2.28
2023-01-24T00:23:33.962Z,1.92
2023-01-24T00:26:01.224Z,2.20
2023-01-24T00:28:28.521Z,2.42
2023-01-24T00:30:55.630Z,2.35
2023-01-24T00:33:22.887Z,1.83
2023-01-24T00:35:53.564Z,1.80
2023-01-24T00:38:22.347Z,1.85
2023-01-24T00:40:51.363Z,1.80
2023-01-24T00:43:18.967Z,2.20
2023-01-24T00:45:47.191Z,2.35
2023-01-24T00:48:15.463Z,2.30
2023-01-24T00:50:42.764Z,1.90
2023-01-24T00:53:10.111Z,2.17
2023-01-24T00:55:47.203Z,2.30
2023-01-24T00:58:14.947Z,2.22
2023-01-24T01:00:42.374Z,2.25
2023-01-24T01:03:13.856Z,2.10
2023-01-24T01:05:43.266Z,2.13
2023-01-24T01:08:11.793Z,2.17
2023-01-24T01:10:40.176Z,2.42
2023-01-24T01:13:07.773Z,2.30
2023-01-24T01:15:35.177Z,1.85
2023-01-24T01:18:04.221Z,2.20
2023-01-24T01:20:31.404Z,2.00
2023-01-24T01:22:59.548Z,2.03
2023-01-24T01:25:26.518Z,1.80
2023-01-24T01:27:53.496Z,2.05
2023-01-24T01:30:20.875Z,1.98
2023-01-24T01:32:48.247Z,2.05
2023-01-24T01:35:15.732Z,1.85
2023-01-24T01:37:42.759Z,2.45
2023-01-24T01:40:10.484Z,1.75
2023-01-24T01:42:57.236Z,2.05
2023-01-24T01:46:05.082Z,2.10
2023-01-24T01:48:46.115Z,2.20
2023-01-24T01:51:20.647Z,2.03
2023-01-24T01:53:55.000Z,2.00
2023-01-24T01:56:40.172Z,2.20
2023-01-24T01:59:17.274Z,1.70
2023-01-24T02:01:45.889Z,2.20
2023-01-24T02:04:21.804Z,2.40
2023-01-24T02:07:09.323Z,2.28
2023-01-24T02:09:41.313Z,2.05
2023-01-24T02:12:14.737Z,1.95
2023-01-24T02:17:28.356Z,2.33
2023-01-24T02:20:07.453Z,2.22
2023-01-24T02:22:54.458Z,1.95
2023-01-24T02:25:37.330Z,2.30
2023-01-24T02:28:06.563Z,2.40
2023-01-24T02:30:33.856Z,2.20
2023-01-24T02:33:09.238Z,2.13
2023-01-24T02:35:36.297Z,2.10
2023-01-24T02:38:07.487Z,2.10
2023-01-24T02:40:35.602Z,2.00
2023-01-24T02:43:06.299Z,2.15
2023-01-24T02:45:36.171Z,2.30
2023-01-24T02:48:03.454Z,2.00
2023-01-24T02:50:55.459Z,1.88
2023-01-24T02:53:32.730Z,2.05
2023-01-24T02:56:21.398Z,2.33
2023-01-24T02:58:48.833Z,1.98
2023-01-24T03:01:17.137Z,2.03
2023-01-24T03:03:48.859Z,2.30
2023-01-24T03:06:18.242Z,1.92
2023-01-24T03:08:46.063Z,2.15
2023-01-24T03:11:39.567Z,1.83
2023-01-24T03:14:25.048Z,2.05
2023-01-24T03:17:10.846Z,1.90
2023-01-24T03:19:56.342Z,1.80
2023-01-24T03:22:41.886Z,1.55
2023-01-24T03:25:27.820Z,1.67
2023-01-24T03:28:13.516Z,1.60
2023-01-24T03:30:59.205Z,1.70
2023-01-24T03:33:45.199Z,1.60
2023-01-24T03:36:20.670Z,1.73
2023-01-24T03:39:11.806Z,1.50
2023-01-24T03:41:38.950Z,1.65
2023-01-24T03:44:07.343Z,2.22
2023-01-24T03:46:41.065Z,1.67
2023-01-24T03:49:10.764Z,1.80
2023-01-24T03:51:57.808Z,1.70
2023-01-24T03:54:25.912Z,1.60
2023-01-24T03:56:58.798Z,1.63
2023-01-24T03:59:26.869Z,1.35
2023-01-24T04:01:53.839Z,1.45
2023-01-24T04:04:45.664Z,1.27
2023-01-24T04:07:25.688Z,1.35
2023-01-24T04:09:55.372Z,1.70
2023-01-24T04:12:22.438Z,1.45
2023-01-24T04:14:49.719Z,1.40
2023-01-24T04:17:16.634Z,1.45
2023-01-24T04:19:47.655Z,1.77
2023-01-24T04:22:17.228Z,1.63
2023-01-24T04:24:45.807Z,1.55
2023-01-24T04:27:13.449Z,1.40
2023-01-24T04:30:00.223Z,1.08
2023-01-24T04:32:30.172Z,1.15
2023-01-24T04:35:23.483Z,1.20
2023-01-24T04:38:01.344Z,1.50
2023-01-24T04:41:03.536Z,1.48
2023-01-24T04:43:38.356Z,1.10
2023-01-24T04:46:05.909Z,1.40
2023-01-24T04:48:53.285Z,1.10
2023-01-24T04:51:21.261Z,1.00
2023-01-24T04:53:49.559Z,1.27
2023-01-24T04:56:20.928Z,1.20
2023-01-24T04:58:47.991Z,2.30
2023-01-24T05:01:15.476Z,1.30
2023-01-24T05:04:05.894Z,1.48
2023-01-24T05:06:34.550Z,1.17
2023-01-24T05:09:01.973Z,1.17
2023-01-24T05:11:39.317Z,1.65
2023-01-24T05:14:08.832Z,1.27
2023-01-24T05:16:36.002Z,1.40
2023-01-24T05:19:03.237Z,1.50
2023-01-24T05:21:31.015Z,1.50
2023-01-24T05:23:58.356Z,1.58
2023-01-24T05:26:27.575Z,1.80
2023-01-24T05:28:55.582Z,1.75
2023-01-24T05:31:24.510Z,1.83
2023-01-24T05:33:51.778Z,1.75
2023-01-24T05:36:23.153Z,1.88
2023-01-24T05:38:51.379Z,1.90
2023-01-24T05:41:21.102Z,1.80
2023-01-24T05:43:51.140Z,2.00
2023-01-24T05:46:23.111Z,1.60
2023-01-24T05:49:05.865Z,2.00
2023-01-24T05:51:33.273Z,2.45
2023-01-24T05:54:00.366Z,2.45
2023-01-24T05:56:47.678Z,2.70
2023-01-24T05:59:15.066Z,2.95
2023-01-24T06:01:42.107Z,4.20
2023-01-24T06:04:11.539Z,4.93
2023-01-24T06:06:40.186Z,4.88
2023-01-24T06:09:07.183Z,4.30
2023-01-24T06:11:34.525Z,5.13
2023-01-24T06:14:21.295Z,7.15
2023-01-24T06:16:49.759Z,5.13
2023-01-24T06:19:18.681Z,3.70
2023-01-24T06:21:50.504Z,3.60
2023-01-24T06:24:26.864Z,3.53
2023-01-24T06:27:01.462Z,3.30
2023-01-24T06:29:28.791Z,3.05
2023-01-24T06:32:01.264Z,3.67
2023-01-24T06:34:57.926Z,3.45
2023-01-24T06:37:42.415Z,3.25
2023-01-24T06:40:11.231Z,3.25
2023-01-24T06:42:38.843Z,3.60
2023-01-24T06:45:07.276Z,3.35
2023-01-24T06:47:34.787Z,3.38
2023-01-24T06:50:02.355Z,3.75
2023-01-24T06:52:29.386Z,3.53
2023-01-24T06:54:56.420Z,4.10
2023-01-24T06:57:23.550Z,3.60
2023-01-24T06:59:50.667Z,4.50
2023-01-24T07:02:17.762Z,3.80
2023-01-24T07:04:44.763Z,4.43
2023-01-24T07:07:14.879Z,5.72
2023-01-24T07:09:42.195Z,5.13
2023-01-24T07:12:09.159Z,6.07
2023-01-24T07:14:36.227Z,6.13
2023-01-24T07:17:03.483Z,6.20
2023-01-24T07:19:30.951Z,6.03
2023-01-24T07:21:58.489Z,5.75
2023-01-24T07:24:30.620Z,5.80
2023-01-24T07:27:01.037Z,6.53
2023-01-24T07:29:28.298Z,6.00
2023-01-24T07:31:55.569Z,5.82
2023-01-24T07:34:22.959Z,6.30
2023-01-24T07:36:50.211Z,5.25
2023-01-24T07:39:17.358Z,6.30
2023-01-24T07:41:45.366Z,8.63
2023-01-24T07:44:14.396Z,9.85
2023-01-24T07:46:41.680Z,9.75
2023-01-24T07:49:08.719Z,12.95
2023-01-24T07:51:35.713Z,12.75
2023-01-24T07:54:03.260Z,12.90
2023-01-24T07:56:30.317Z,12.95
2023-01-24T07:58:58.469Z,12.93
2023-01-24T08:01:27.441Z,12.45
2023-01-24T08:03:58.690Z,12.13
2023-01-24T08:06:28.640Z,11.93
2023-01-24T08:08:56.665Z,13.20
2023-01-24T08:11:26.508Z,12.35
2023-01-24T08:13:53.623Z,11.30
2023-01-24T08:16:24.898Z,11.30
2023-01-24T08:18:52.266Z,11.13
2023-01-24T08:21:19.263Z,9.05
2023-01-24T08:23:46.484Z,9.15
2023-01-24T08:26:13.475Z,9.82
2023-01-24T08:28:40.559Z,9.75
2023-01-24T08:31:07.607Z,9.80
2023-01-24T08:33:39.037Z,9.65
2023-01-24T08:36:06.634Z,9.55
2023-01-24T08:38:33.767Z,7.47
2023-01-24T08:41:04.747Z,7.55
2023-01-24T08:43:32.460Z,7.72
2023-01-24T08:45:59.549Z,7.20
2023-01-24T08:48:29.567Z,6.40
2023-01-24T08:50:57.120Z,6.13
2023-01-24T08:53:24.307Z,6.05
2023-01-24T08:55:51.789Z,6.03
2023-01-24T08:58:18.816Z,5.85
2023-01-24T09:00:45.883Z,6.13
2023-01-24T09:03:15.560Z,6.43
2023-01-24T09:05:42.918Z,7.05
2023-01-24T09:08:10.300Z,6.80
2023-01-24T09:10:37.538Z,6.72
2023-01-24T09:13:06.033Z,6.78
2023-01-24T09:15:33.369Z,6.57
2023-01-24T09:18:03.661Z,7.40
2023-01-24T09:20:30.830Z,6.82
2023-01-24T09:22:57.999Z,6.20
2023-01-24T09:25:26.735Z,6.90
2023-01-24T09:27:54.871Z,6.30
2023-01-24T09:30:23.960Z,6.95
2023-01-24T09:32:51.322Z,6.47
2023-01-24T09:35:18.345Z,6.18
2023-01-24T09:37:46.141Z,8.15
2023-01-24T09:40:21.314Z,7.95
2023-01-24T09:43:00.155Z,8.57
2023-01-24T09:45:44.354Z,9.32
2023-01-24T09:48:19.347Z,9.20
2023-01-24T09:50:52.157Z,9.63
2023-01-24T09:53:24.546Z,8.00
2023-01-24T09:55:53.290Z,9.70
2023-01-24T09:58:41.112Z,9.70
2023-01-24T10:01:13.981Z,8.77
2023-01-24T10:03:43.389Z,9.50
2023-01-24T10:06:18.298Z,8.30
2023-01-24T10:09:14.643Z,7.72
2023-01-24T10:11:52.770Z,8.02
2023-01-24T10:14:51.197Z,8.30
2023-01-24T10:17:36.637Z,7.20
2023-01-24T10:20:12.586Z,8.70
2023-01-24T10:22:57.737Z,7.72
2023-01-24T10:25:49.262Z,7.28
2023-01-24T10:28:30.297Z,6.22
2023-01-24T10:31:13.472Z,5.80
2023-01-24T10:33:48.418Z,4.82
2023-01-24T10:36:31.714Z,5.47
2023-01-24T10:38:58.796Z,4.90
2023-01-24T10:41:30.843Z,4.30
2023-01-24T10:44:06.251Z,4.32
2023-01-24T10:46:43.739Z,4.20
2023-01-24T10:49:25.261Z,4.10
2023-01-24T10:52:19.872Z,2.50
2023-01-24T10:54:48.392Z,1.65
2023-01-24T10:57:39.421Z,1.38
2023-01-24T11:00:28.267Z,1.10
2023-01-24T11:02:58.517Z,3.67
2023-01-24T11:05:35.968Z,1.20
2023-01-24T11:08:05.575Z,0.95
2023-01-24T11:10:43.064Z,1.08
2023-01-24T11:13:40.710Z,1.33
2023-01-24T11:16:08.033Z,1.67
2023-01-24T11:18:35.683Z,1.40
2023-01-24T11:21:08.618Z,1.63
2023-01-24T11:23:35.894Z,1.50
2023-01-24T11:26:05.406Z,2.30
2023-01-24T11:28:37.767Z,1.80
2023-01-24T11:31:20.977Z,1.47
2023-01-24T11:34:14.067Z,1.35
2023-01-24T11:37:02.744Z,1.00
2023-01-24T11:39:44.413Z,1.70
2023-01-24T11:42:37.856Z,1.80
2023-01-24T11:45:16.166Z,2.00
2023-01-24T11:48:10.062Z,1.33
2023-01-24T11:54:15.994Z,3.20
2023-01-24T11:56:52.373Z,2.70
2023-01-24T11:59:49.895Z,1.85
2023-01-24T12:02:33.599Z,1.90
2023-01-24T12:05:25.178Z,1.20
2023-01-24T12:08:22.699Z,1.60
2023-01-24T12:11:34.770Z,2.42
2023-01-24T12:14:24.024Z,1.90
2023-01-24T12:17:23.762Z,1.85
2023-01-24T12:20:29.798Z,1.83
2023-01-24T12:23:04.070Z,2.03
2023-01-24T12:25:38.316Z,1.98
2023-01-24T12:28:20.762Z,1.60
2023-01-24T12:30:57.292Z,1.50
2023-01-24T12:33:46.811Z,2.10
2023-01-24T12:36:24.903Z,1.80
2023-01-24T12:38:56.654Z,1.80
2023-01-24T12:41:37.170Z,1.75
2023-01-24T12:44:22.733Z,1.52
2023-01-24T12:47:16.217Z,1.73
2023-01-24T12:49:52.355Z,2.00
2023-01-24T12:52:28.890Z,1.23
2023-01-24T12:55:21.280Z,1.35
2023-01-24T12:58:03.649Z,1.17
2023-01-24T13:00:46.542Z,1.02
2023-01-24T13:03:27.144Z,1.10
2023-01-24T13:06:10.838Z,1.10
2023-01-24T13:11:30.648Z,1.02
2023-01-24T13:14:26.816Z,1.02
2023-01-24T13:16:56.863Z,0.90
2023-01-24T13:19:51.266Z,0.88
2023-01-24T13:22:33.283Z,0.85
2023-01-24T13:25:18.384Z,1.10
2023-01-24T13:27:57.832Z,1.00
2023-01-24T13:30:59.021Z,0.80
2023-01-24T13:33:42.229Z,0.90
2023-01-24T13:36:10.044Z,1.17
2023-01-24T13:38:45.627Z,1.15
2023-01-24T13:41:27.075Z,1.02
2023-01-24T13:44:05.185Z,1.02
2023-01-24T13:46:44.731Z,1.08
2023-01-24T13:49:29.928Z,1.02
2023-01-24T13:51:58.148Z,1.48
2023-01-24T13:54:44.342Z,1.10
2023-01-24T13:57:14.329Z,1.17
2023-01-24T13:59:43.630Z,1.10
2023-01-24T14:02:31.100Z,1.15
2023-01-24T14:04:58.908Z,1.10
2023-01-24T14:07:39.483Z,1.50
2023-01-24T14:10:10.221Z,1.48
2023-01-24T14:12:40.222Z,1.70
2023-01-24T14:15:10.388Z,1.35
2023-01-24T14:17:37.501Z,1.65
2023-01-24T14:20:05.337Z,1.33
2023-01-24T14:22:38.961Z,1.40
2023-01-24T14:25:35.666Z,1.40
2023-01-24T14:28:14.564Z,1.25
2023-01-24T14:30:58.350Z,1.38
2023-01-24T14:36:25.667Z,1.20
2023-01-24T14:39:29.647Z,1.50
2023-01-24T14:42:02.697Z,1.42
2023-01-24T14:44:32.554Z,1.50
2023-01-24T14:47:05.897Z,1.40
2023-01-24T14:49:50.840Z,1.60
2023-01-24T14:52:25.392Z,1.50
2023-01-24T14:54:55.058Z,1.23
2023-01-24T14:57:31.031Z,1.88
2023-01-24T15:00:09.087Z,1.40
2023-01-24T15:02:37.401Z,1.33
2023-01-24T15:05:22.482Z,1.10
2023-01-24T15:07:49.591Z,1.38
2023-01-24T15:10:17.003Z,1.33
2023-01-24T15:12:44.138Z,1.50
2023-01-24T15:15:19.395Z,1.40
2023-01-24T15:17:49.285Z,1.50
2023-01-24T15:20:25.241Z,1.63
2023-01-24T15:22:57.834Z,1.13
2023-01-24T15:25:33.718Z,1.52
2023-01-24T15:28:32.182Z,1.38
2023-01-24T15:31:01.720Z,1.20
2023-01-24T15:33:43.299Z,1.27
2023-01-24T15:36:28.759Z,1.30
2023-01-24T15:38:58.182Z,1.15
2023-01-24T15:41:46.786Z,1.20
2023-01-24T15:44:15.118Z,1.30
2023-01-24T15:47:03.117Z,1.30
2023-01-24T15:49:34.883Z,1.25
2023-01-24T15:52:02.680Z,1.20
2023-01-24T15:54:30.098Z,1.17
2023-01-24T15:57:01.878Z,1.20
2023-01-24T15:59:30.499Z,1.63
2023-01-24T16:01:57.707Z,1.40
2023-01-24T16:04:25.285Z,1.35
2023-01-24T16:06:52.277Z,1.15
2023-01-24T16:09:19.662Z,1.10
2023-01-24T16:11:49.598Z,1.17
2023-01-24T16:14:27.082Z,1.15
2023-01-24T16:16:58.334Z,1.40
2023-01-24T16:19:25.385Z,1.00
2023-01-24T16:21:53.403Z,0.82
2023-01-24T16:24:20.576Z,0.80
2023-01-24T16:26:53.069Z,1.30
2023-01-24T16:29:25.930Z,1.37
2023-01-24T16:31:53.205Z,1.48
2023-01-24T16:34:20.327Z,1.20
2023-01-24T16:36:47.553Z,1.10
2023-01-24T16:39:19.407Z,1.20
2023-01-24T16:41:47.976Z,1.50
2023-01-24T16:44:15.743Z,0.93
2023-01-24T16:46:50.123Z,1.00
2023-01-24T16:49:17.972Z,1.10
2023-01-24T16:51:46.459Z,1.10
2023-01-24T16:54:14.833Z,1.10
2023-01-24T16:56:43.636Z,1.10
2023-01-24T16:59:10.930Z,1.33
2023-01-24T17:01:38.042Z,1.05
2023-01-24T17:04:05.453Z,1.10
2023-01-24T17:06:33.086Z,1.05
2023-01-24T17:09:00.303Z,1.10
2023-01-24T17:11:27.575Z,1.08
2023-01-24T17:13:54.563Z,0.80
2023-01-24T17:16:21.666Z,1.13
2023-01-24T17:18:48.827Z,0.80
2023-01-24T17:21:17.166Z,1.20
2023-01-24T17:23:44.796Z,1.08
2023-01-24T17:26:15.163Z,1.08
2023-01-24T17:28:44.311Z,1.00
2023-01-24T17:31:13.721Z,1.10
2023-01-24T17:33:41.924Z,0.90
2023-01-24T17:36:09.950Z,1.23
2023-01-24T17:38:37.189Z,1.40
2023-01-24T17:41:04.472Z,1.27
2023-01-24T17:43:40.948Z,0.95
2023-01-24T17:46:18.450Z,1.08
2023-01-24T17:48:45.612Z,0.80
2023-01-24T17:51:18.727Z,0.80
2023-01-24T17:53:46.853Z,0.77
2023-01-24T17:56:15.205Z,1.10
2023-01-24T17:58:42.493Z,1.40
2023-01-24T18:01:09.496Z,0.90
2023-01-24T18:03:37.337Z,0.90
2023-01-24T18:06:06.139Z,0.93
2023-01-24T18:08:33.148Z,1.10
2023-01-24T18:11:08.626Z,0.88
2023-01-24T18:13:36.795Z,1.20
2023-01-24T18:16:06.011Z,1.20
2023-01-24T18:18:33.188Z,1.25
2023-01-24T18:21:00.185Z,1.33
2023-01-24T18:23:27.931Z,1.23
2023-01-24T18:26:01.168Z,1.58
2023-01-24T18:28:28.265Z,1.33
2023-01-24T18:30:55.551Z,2.30
2023-01-24T18:33:22.617Z,1.48
2023-01-24T18:35:49.838Z,1.50
2023-01-24T18:38:16.919Z,2.30
2023-01-24T18:40:44.098Z,1.85
2023-01-24T18:43:12.219Z,2.08
2023-01-24T18:45:39.328Z,2.65
2023-01-24T18:48:06.486Z,1.98
2023-01-24T18:50:33.647Z,1.40
2023-01-24T18:53:00.788Z,1.42
2023-01-24T18:55:27.731Z,1.38
2023-01-24T18:57:54.901Z,1.10
2023-01-24T19:00:23.040Z,0.70
2023-01-24T19:02:50.042Z,0.80
2023-01-24T19:05:17.209Z,0.95
2023-01-24T19:07:45.807Z,0.90
2023-01-24T19:10:13.839Z,1.10
2023-01-24T19:12:41.081Z,2.88
2023-01-24T19:15:08.785Z,2.38
2023-01-24T19:17:35.878Z,1.80
2023-01-24T19:20:02.983Z,2.08
2023-01-24T19:22:30.044Z,1.70
2023-01-24T19:24:57.120Z,2.00
2023-01-24T19:27:24.231Z,2.10
2023-01-24T19:29:51.379Z,1.10
2023-01-24T19:32:18.331Z,1.52
2023-01-24T19:34:45.425Z,1.30
2023-01-24T19:37:13.161Z,1.30
2023-01-24T19:39:40.197Z,1.00
2023-01-24T19:42:07.782Z,1.88
2023-01-24T19:44:34.967Z,1.85
2023-01-24T19:47:02.017Z,2.78
2023-01-24T19:49:29.164Z,1.40
2023-01-24T19:51:56.427Z,1.42
2023-01-24T19:54:23.706Z,1.50
2023-01-24T19:56:55.024Z,1.50
2023-01-24T19:59:23.411Z,1.17
2023-01-24T20:01:51.528Z,1.00
2023-01-24T20:04:24.535Z,0.88
2023-01-24T20:06:54.256Z,0.90
2023-01-24T20:09:21.935Z,0.80
2023-01-24T20:11:50.848Z,0.60
2023-01-24T20:14:18.067Z,0.60
2023-01-24T20:16:47.103Z,0.63
2023-01-24T20:19:27.135Z,1.08
2023-01-24T20:21:55.661Z,1.50
2023-01-24T20:24:23.089Z,1.33
2023-01-24T20:26:51.983Z,1.27
2023-01-24T20:29:19.220Z,1.23
2023-01-24T20:31:47.043Z,1.40
2023-01-24T20:34:17.727Z,1.50
2023-01-24T20:36:47.122Z,1.05
2023-01-24T20:39:14.261Z,1.20
2023-01-24T20:41:43.905Z,1.30
2023-01-24T20:44:26.101Z,1.20
2023-01-24T20:46:54.747Z,1.57
2023-01-24T20:49:22.192Z,1.98
2023-01-24T20:51:49.582Z,2.92
2023-01-24T20:54:17.245Z,3.80
2023-01-24T20:56:47.832Z,5.30
2023-01-24T20:59:16.436Z,2.72
2023-01-24T21:01:43.869Z,2.47
2023-01-24T21:04:11.691Z,1.52
2023-01-24T21:06:41.726Z,1.83
2023-01-24T21:09:10.288Z,1.10
2023-01-24T21:11:38.459Z,1.10
2023-01-24T21:14:08.426Z,1.33
2023-01-24T21:16:36.864Z,1.88
2023-01-24T21:19:06.975Z,1.50
2023-01-24T21:21:36.754Z,1.63
2023-01-24T21:24:11.459Z,1.58
2023-01-24T21:26:40.787Z,1.85
2023-01-24T21:29:08.346Z,2.70
2023-01-24T21:31:35.979Z,1.30
2023-01-24T21:34:03.536Z,1.35
2023-01-24T21:36:33.469Z,1.10
2023-01-24T21:39:03.757Z,1.25
2023-01-24T21:41:50.370Z,1.17
2023-01-24T21:44:18.429Z,1.60
2023-01-24T21:46:45.878Z,1.10
2023-01-24T21:49:13.258Z,1.42
2023-01-24T21:51:50.279Z,1.20
2023-01-24T21:54:26.766Z,1.95
2023-01-24T21:57:31.881Z,1.15
2023-01-24T22:00:02.287Z,0.80
2023-01-24T22:02:39.234Z,1.02
2023-01-24T22:05:07.194Z,1.00
2023-01-24T22:07:34.814Z,1.55
2023-01-24T22:10:02.372Z,1.20
2023-01-24T22:12:30.376Z,1.33
2023-01-24T22:14:59.210Z,1.45
2023-01-24T22:17:26.629Z,1.30
2023-01-24T22:19:56.253Z,1.15
2023-01-24T22:22:32.513Z,0.98
2023-01-24T22:25:17.538Z,1.30
2023-01-24T22:27:46.412Z,1.05
2023-01-24T22:30:23.792Z,1.63
2023-01-24T22:32:52.020Z,1.23
2023-01-24T22:35:24.936Z,1.10
2023-01-24T22:38:03.074Z,1.50
2023-01-24T22:40:30.406Z,1.00
2023-01-24T22:42:58.819Z,1.40
2023-01-24T22:45:28.111Z,1.52
2023-01-24T22:47:56.131Z,0.90
2023-01-24T22:50:23.902Z,1.33
2023-01-24T22:52:51.530Z,1.05
2023-01-24T22:55:19.008Z,1.40
2023-01-24T22:57:46.257Z,2.00
2023-01-24T23:00:14.031Z,2.17
2023-01-24T23:02:41.203Z,1.83
2023-01-24T23:05:09.083Z,1.48
2023-01-24T23:07:36.441Z,1.25
2023-01-24T23:10:03.864Z,2.20
2023-01-24T23:12:49.289Z,1.40
2023-01-24T23:15:35.229Z,1.60
2023-01-24T23:18:04.380Z,1.23
2023-01-24T23:20:50.109Z,1.33
2023-01-24T23:23:17.200Z,1.63
2023-01-24T23:25:44.157Z,1.25
2023-01-24T23:28:11.300Z,1.35
2023-01-24T23:30:48.814Z,1.38
2023-01-24T23:33:29.993Z,1.73
2023-01-24T23:35:57.807Z,0.80
2023-01-24T23:38:24.995Z,0.70
2023-01-24T23:40:52.152Z,1.42
2023-01-24T23:43:19.408Z,0.80
2023-01-24T23:45:46.487Z,1.60
2023-01-24T23:48:13.807Z,1.10
2023-01-24T23:50:40.816Z,1.08
2023-01-24T23:53:08.093Z,1.20
2023-01-24T23:55:35.229Z,1.40
2023-01-24T23:58:03.708Z,1.45
